createdAt,value
2024-04-24T00:01:28.389Z,7.63
2024-04-24T00:03:54.986Z,7.55
2024-04-24T00:06:21.542Z,7.12
2024-04-24T00:08:50.624Z,7.73
2024-04-24T00:11:18.131Z,7.95
2024-04-24T00:13:44.742Z,7.60
2024-04-24T00:16:11.379Z,7.87
2024-04-24T00:18:38.229Z,7.46
2024-04-24T00:21:05.087Z,7.44
2024-04-24T00:23:32.638Z,7.59
2024-04-24T00:26:01.800Z,7.38
2024-04-24T00:28:28.375Z,7.99
2024-04-24T00:30:57.610Z,7.59
2024-04-24T00:33:24.295Z,7.27
2024-04-24T00:35:50.858Z,7.15
2024-04-24T00:38:17.533Z,7.75
2024-04-24T00:40:44.145Z,7.82
2024-04-24T00:43:13.292Z,7.33
2024-04-24T00:45:39.863Z,7.00
2024-04-24T00:48:09.221Z,7.23
2024-04-24T00:50:36.933Z,7.57
2024-04-24T00:53:03.897Z,7.56
2024-04-24T00:55:30.935Z,8.00
2024-04-24T00:57:57.604Z,7.85
2024-04-24T01:00:26.850Z,8.25
2024-04-24T01:02:53.550Z,7.62
2024-04-24T01:05:20.642Z,7.15
2024-04-24T01:07:47.321Z,7.15
2024-04-24T01:10:15.571Z,7.64
2024-04-24T01:12:42.140Z,7.10
2024-04-24T01:15:09.962Z,7.49
2024-04-24T01:17:42.603Z,7.75
2024-04-24T01:20:12.443Z,6.97
2024-04-24T01:22:52.515Z,7.48
2024-04-24T01:25:24.797Z,7.53
2024-04-24T01:27:54.184Z,7.56
2024-04-24T01:30:20.782Z,7.36
2024-04-24T01:32:47.415Z,7.74
2024-04-24T01:35:14.226Z,7.15
2024-04-24T01:37:40.816Z,7.45
2024-04-24T01:40:08.609Z,7.67
2024-04-24T01:42:35.160Z,7.53
2024-04-24T01:45:05.210Z,7.92
2024-04-24T01:47:31.892Z,8.08
2024-04-24T01:49:58.591Z,7.64
2024-04-24T01:52:25.226Z,7.76
2024-04-24T01:54:51.750Z,8.18
2024-04-24T01:57:18.343Z,7.32
2024-04-24T01:59:44.930Z,7.84
2024-04-24T02:02:14.122Z,7.49
2024-04-24T02:04:40.672Z,7.13
2024-04-24T02:07:07.231Z,7.13
2024-04-24T02:09:33.894Z,7.24
2024-04-24T02:12:09.773Z,7.77
2024-04-24T02:14:41.177Z,7.49
2024-04-24T02:17:07.762Z,7.61
2024-04-24T02:19:37.045Z,7.71
2024-04-24T02:22:03.566Z,7.74
2024-04-24T02:24:30.160Z,6.80
2024-04-24T02:26:56.744Z,7.21
2024-04-24T02:29:23.487Z,7.50
2024-04-24T02:31:50.153Z,7.68
2024-04-24T02:34:16.695Z,7.45
2024-04-24T02:36:45.798Z,7.72
2024-04-24T02:39:12.414Z,7.37
2024-04-24T02:41:38.987Z,7.25
2024-04-24T02:44:05.576Z,7.41
2024-04-24T02:46:33.108Z,6.80
2024-04-24T02:48:59.645Z,7.30
2024-04-24T02:51:26.180Z,6.63
2024-04-24T02:53:55.331Z,7.23
2024-04-24T02:56:21.859Z,7.42
2024-04-24T02:58:48.400Z,7.42
2024-04-24T03:01:15.303Z,7.27
2024-04-24T03:03:42.019Z,7.41
2024-04-24T03:06:08.804Z,7.61
2024-04-24T03:08:35.378Z,7.22
2024-04-24T03:11:04.787Z,7.52
2024-04-24T03:13:31.385Z,6.90
2024-04-24T03:15:57.923Z,6.59
2024-04-24T03:18:24.488Z,6.75
2024-04-24T03:20:51.026Z,6.51
2024-04-24T03:23:17.714Z,7.08
2024-04-24T03:25:44.311Z,7.30
2024-04-24T03:28:13.761Z,7.05
2024-04-24T03:30:40.326Z,7.18
2024-04-24T03:33:07.059Z,6.95
2024-04-24T03:35:33.675Z,6.82
2024-04-24T03:38:00.264Z,7.04
2024-04-24T03:40:26.793Z,7.26
2024-04-24T03:42:53.381Z,7.06
2024-04-24T03:45:24.415Z,6.94
2024-04-24T03:47:51.092Z,6.99
2024-04-24T03:50:17.942Z,7.14
2024-04-24T03:52:44.539Z,7.09
2024-04-24T03:55:11.074Z,6.76
2024-04-24T03:57:37.596Z,6.98
2024-04-24T04:00:04.666Z,7.11
2024-04-24T04:02:33.919Z,7.04
2024-04-24T04:05:00.655Z,7.54
2024-04-24T04:07:27.244Z,7.29
2024-04-24T04:09:53.762Z,7.31
2024-04-24T04:12:20.377Z,7.09
2024-04-24T04:14:46.946Z,7.35
2024-04-24T04:17:13.662Z,7.24
2024-04-24T04:19:42.973Z,7.46
2024-04-24T04:22:09.579Z,7.33
2024-04-24T04:24:36.152Z,7.37
2024-04-24T04:27:02.682Z,6.94
2024-04-24T04:29:29.471Z,6.92
2024-04-24T04:31:56.065Z,6.64
2024-04-24T04:34:22.614Z,7.10
2024-04-24T04:36:51.936Z,7.63
2024-04-24T04:39:18.497Z,7.32
2024-04-24T04:41:45.052Z,7.67
2024-04-24T04:44:11.618Z,7.46
2024-04-24T04:46:38.130Z,6.97
2024-04-24T04:49:04.671Z,7.20
2024-04-24T04:51:31.213Z,7.63
2024-04-24T04:54:00.409Z,7.86
2024-04-24T04:56:27.007Z,7.30
2024-04-24T04:58:53.604Z,7.53
2024-04-24T05:01:20.158Z,7.55
2024-04-24T05:03:46.720Z,7.81
2024-04-24T05:06:13.279Z,8.06
2024-04-24T05:08:39.803Z,7.36
2024-04-24T05:11:08.959Z,7.28
2024-04-24T05:13:35.691Z,7.93
2024-04-24T05:16:02.205Z,8.02
2024-04-24T05:18:28.910Z,8.15
2024-04-24T05:20:55.495Z,8.04
2024-04-24T05:23:22.122Z,7.32
2024-04-24T05:25:48.764Z,7.91
2024-04-24T05:28:17.930Z,7.47
2024-04-24T05:30:44.598Z,8.23
2024-04-24T05:33:11.260Z,8.19
2024-04-24T05:35:37.874Z,7.89
2024-04-24T05:38:04.617Z,7.73
2024-04-24T05:40:31.189Z,7.53
2024-04-24T05:42:57.726Z,7.81
2024-04-24T05:45:28.653Z,7.58
2024-04-24T05:47:55.296Z,7.78
2024-04-24T05:50:21.994Z,7.96
2024-04-24T05:52:48.668Z,7.90
2024-04-24T05:55:15.262Z,7.99
2024-04-24T05:57:41.829Z,7.85
2024-04-24T06:00:09.498Z,7.62
2024-04-24T06:02:38.743Z,8.08
2024-04-24T06:05:06.188Z,7.72
2024-04-24T06:07:32.932Z,7.29
2024-04-24T06:09:59.480Z,7.56
2024-04-24T06:12:26.044Z,8.12
2024-04-24T06:14:52.706Z,7.86
2024-04-24T06:17:19.327Z,7.98
2024-04-24T06:19:48.642Z,8.10
2024-04-24T06:22:15.213Z,8.08
2024-04-24T06:24:41.765Z,8.07
2024-04-24T06:27:08.417Z,8.15
2024-04-24T06:29:34.984Z,7.62
2024-04-24T06:32:01.694Z,7.84
2024-04-24T06:34:28.327Z,7.94
2024-04-24T06:36:57.416Z,7.44
2024-04-24T06:39:23.966Z,8.44
2024-04-24T06:41:50.544Z,8.30
2024-04-24T06:44:17.107Z,8.13
2024-04-24T06:46:43.695Z,8.44
2024-04-24T06:49:10.514Z,8.27
2024-04-24T06:51:37.057Z,8.74
2024-04-24T06:54:06.236Z,9.04
2024-04-24T06:56:33.850Z,9.03
2024-04-24T06:59:00.593Z,8.52
2024-04-24T07:01:27.185Z,8.95
2024-04-24T07:03:53.816Z,8.81
2024-04-24T07:06:20.418Z,8.69
2024-04-24T07:08:47.003Z,9.13
2024-04-24T07:11:16.208Z,8.82
2024-04-24T07:13:42.882Z,8.45
2024-04-24T07:16:09.437Z,8.19
2024-04-24T07:18:36.046Z,8.07
2024-04-24T07:21:02.733Z,8.06
2024-04-24T07:23:29.343Z,7.77
2024-04-24T07:25:56.088Z,8.17
2024-04-24T07:28:25.273Z,8.39
2024-04-24T07:30:51.806Z,8.11
2024-04-24T07:33:18.548Z,8.76
2024-04-24T07:35:45.127Z,8.55
2024-04-24T07:38:11.702Z,8.26
2024-04-24T07:40:38.300Z,7.65
2024-04-24T07:43:04.866Z,8.12
2024-04-24T07:45:34.043Z,7.91
2024-04-24T07:48:00.736Z,8.32
2024-04-24T07:50:27.376Z,8.44
2024-04-24T07:52:54.087Z,8.43
2024-04-24T07:55:20.710Z,7.79
2024-04-24T07:57:47.258Z,7.74
2024-04-24T08:00:14.711Z,7.89
2024-04-24T08:02:43.931Z,7.65
2024-04-24T08:05:10.602Z,8.23
2024-04-24T08:07:37.179Z,7.39
2024-04-24T08:10:04.134Z,7.84
2024-04-24T08:12:30.862Z,8.48
2024-04-24T08:14:57.642Z,8.22
2024-04-24T08:17:26.080Z,8.17
2024-04-24T08:19:55.575Z,8.12
2024-04-24T08:22:22.175Z,8.24
2024-04-24T08:24:48.726Z,8.10
2024-04-24T08:27:15.359Z,7.95
2024-04-24T08:29:42.083Z,8.15
2024-04-24T08:32:08.697Z,8.25
2024-04-24T08:34:35.707Z,7.74
2024-04-24T08:37:05.302Z,7.90
2024-04-24T08:39:32.066Z,8.38
2024-04-24T08:42:00.284Z,8.46
2024-04-24T08:44:29.058Z,7.29
2024-04-24T08:46:56.609Z,8.74
2024-04-24T08:49:23.688Z,8.00
2024-04-24T08:51:50.885Z,7.83
2024-04-24T08:54:25.596Z,8.52
2024-04-24T08:57:00.165Z,7.90
2024-04-24T09:01:58.816Z,8.90
2024-04-24T09:04:26.028Z,8.97
2024-04-24T09:06:52.858Z,8.76
2024-04-24T09:09:23.419Z,9.81
2024-04-24T09:11:51.207Z,9.72
2024-04-24T09:14:19.296Z,10.81
2024-04-24T09:16:46.836Z,10.24
2024-04-24T09:19:13.423Z,10.73
2024-04-24T09:21:40.509Z,9.54
2024-04-24T09:24:07.394Z,9.37
2024-04-24T09:26:36.884Z,9.16
2024-04-24T09:29:03.549Z,9.07
2024-04-24T09:31:30.196Z,10.47
2024-04-24T09:33:56.866Z,10.61
2024-04-24T09:36:23.553Z,11.22
2024-04-24T09:38:50.260Z,10.82
2024-04-24T09:41:16.859Z,9.64
2024-04-24T09:43:46.234Z,10.16
2024-04-24T09:46:12.895Z,10.07
2024-04-24T09:48:40.829Z,10.39
2024-04-24T09:51:07.503Z,10.90
2024-04-24T09:53:34.174Z,11.88
2024-04-24T09:56:05.712Z,11.24
2024-04-24T09:58:34.957Z,10.38
2024-04-24T10:01:08.083Z,11.03
2024-04-24T10:03:35.897Z,9.86
2024-04-24T10:06:03.710Z,10.15
2024-04-24T10:08:32.470Z,9.84
2024-04-24T10:11:01.856Z,10.35
2024-04-24T10:13:32.939Z,10.53
2024-04-24T10:16:00.563Z,10.81
2024-04-24T10:18:30.374Z,10.86
2024-04-24T10:20:59.338Z,10.58
2024-04-24T10:23:28.524Z,10.99
2024-04-24T10:25:56.524Z,10.70
2024-04-24T10:28:23.798Z,11.04
2024-04-24T10:30:51.089Z,10.95
2024-04-24T10:33:18.698Z,11.72
2024-04-24T10:35:48.032Z,10.97
2024-04-24T10:38:15.439Z,11.99
2024-04-24T10:40:45.915Z,12.50
2024-04-24T10:43:15.440Z,12.06
2024-04-24T10:45:42.973Z,11.32
2024-04-24T10:48:10.752Z,12.04
2024-04-24T10:50:39.210Z,11.87
2024-04-24T10:53:12.695Z,11.26
2024-04-24T10:55:50.364Z,11.76
2024-04-24T10:58:20.402Z,10.62
2024-04-24T11:00:47.111Z,10.40
2024-04-24T11:03:13.842Z,9.83
2024-04-24T11:05:40.762Z,9.88
2024-04-24T11:08:20.165Z,10.71
2024-04-24T11:10:50.581Z,10.66
2024-04-24T11:13:17.149Z,11.17
2024-04-24T11:15:51.316Z,10.87
2024-04-24T11:18:25.194Z,10.94
2024-04-24T11:20:51.788Z,11.31
2024-04-24T11:23:20.959Z,11.32
2024-04-24T11:25:52.812Z,11.01
2024-04-24T11:28:25.372Z,10.64
2024-04-24T11:30:51.955Z,10.79
2024-04-24T11:33:19.963Z,11.27
2024-04-24T11:35:46.988Z,11.11
2024-04-24T11:38:13.781Z,11.24
2024-04-24T11:40:43.545Z,11.05
2024-04-24T11:43:10.285Z,12.90
2024-04-24T11:45:36.911Z,13.14
2024-04-24T11:48:04.958Z,12.55
2024-04-24T11:50:31.976Z,11.44
2024-04-24T11:52:59.439Z,12.10
2024-04-24T11:55:26.088Z,13.22
2024-04-24T11:57:55.223Z,13.38
2024-04-24T12:00:21.803Z,12.41
2024-04-24T12:02:48.482Z,12.20
2024-04-24T12:05:15.258Z,11.59
2024-04-24T12:07:45.080Z,11.02
2024-04-24T12:10:12.366Z,12.09
2024-04-24T12:12:39.063Z,11.82
2024-04-24T12:15:12.734Z,11.22
2024-04-24T12:17:39.234Z,11.30
2024-04-24T12:20:07.521Z,11.78
2024-04-24T12:22:34.550Z,11.40
2024-04-24T12:25:01.115Z,11.69
2024-04-24T12:27:27.647Z,10.79
2024-04-24T12:29:54.219Z,10.72
2024-04-24T12:32:23.555Z,10.26
2024-04-24T12:34:50.161Z,11.16
2024-04-24T12:37:16.843Z,10.37
2024-04-24T12:39:43.382Z,9.97
2024-04-24T12:42:10.036Z,10.33
2024-04-24T12:44:36.625Z,10.41
2024-04-24T12:47:03.282Z,9.45
2024-04-24T12:49:33.270Z,8.55
2024-04-24T12:51:59.849Z,8.62
2024-04-24T12:54:26.432Z,8.83
2024-04-24T12:56:52.971Z,9.04
2024-04-24T12:59:19.582Z,8.80
2024-04-24T13:01:46.210Z,8.56
2024-04-24T13:04:13.125Z,8.59
2024-04-24T13:06:42.455Z,8.47
2024-04-24T13:09:08.988Z,7.99
2024-04-24T13:11:35.720Z,8.37
2024-04-24T13:14:02.465Z,7.59
2024-04-24T13:16:29.013Z,7.64
2024-04-24T13:18:55.707Z,8.06
2024-04-24T13:21:22.342Z,8.66
2024-04-24T13:23:51.501Z,8.60
2024-04-24T13:26:18.092Z,7.68
2024-04-24T13:28:44.650Z,7.89
2024-04-24T13:31:11.212Z,7.24
2024-04-24T13:33:38.297Z,7.03
2024-04-24T13:36:05.577Z,7.48
2024-04-24T13:38:32.117Z,7.09
2024-04-24T13:41:04.945Z,8.47
2024-04-24T13:43:32.074Z,7.33
2024-04-24T13:45:58.646Z,7.53
2024-04-24T13:48:27.256Z,8.23
2024-04-24T13:50:54.670Z,8.69
2024-04-24T13:53:21.241Z,9.15
2024-04-24T13:55:49.800Z,9.20
2024-04-24T13:58:18.956Z,9.10
2024-04-24T14:00:47.330Z,9.46
2024-04-24T14:03:13.947Z,9.44
2024-04-24T14:05:40.712Z,10.38
2024-04-24T14:08:07.553Z,10.40
2024-04-24T14:10:34.138Z,9.97
2024-04-24T14:13:00.706Z,10.00
2024-04-24T14:15:30.196Z,10.44
2024-04-24T14:17:56.923Z,10.98
2024-04-24T14:20:23.629Z,10.20
2024-04-24T14:22:50.183Z,10.05
2024-04-24T14:25:16.778Z,10.68
2024-04-24T14:27:44.679Z,10.31
2024-04-24T14:30:11.846Z,9.91
2024-04-24T14:32:41.066Z,10.31
2024-04-24T14:35:08.241Z,9.48
2024-04-24T14:37:34.915Z,9.81
2024-04-24T14:40:01.698Z,9.39
2024-04-24T14:42:28.268Z,9.84
2024-04-24T14:44:54.962Z,9.89
2024-04-24T14:47:21.516Z,9.66
2024-04-24T14:49:50.851Z,10.24
2024-04-24T14:52:17.435Z,10.14
2024-04-24T14:54:44.060Z,9.02
2024-04-24T14:57:10.714Z,8.96
2024-04-24T14:59:37.427Z,9.05
2024-04-24T15:02:04.353Z,9.42
2024-04-24T15:04:31.102Z,9.81
2024-04-24T15:07:04.387Z,9.70
2024-04-24T15:09:30.954Z,9.51
2024-04-24T15:11:57.512Z,9.63
2024-04-24T15:14:24.099Z,9.57
2024-04-24T15:16:50.651Z,9.34
2024-04-24T15:19:17.342Z,9.07
2024-04-24T15:21:44.242Z,8.27
2024-04-24T15:24:13.509Z,8.13
2024-04-24T15:26:40.089Z,8.49
2024-04-24T15:29:06.767Z,8.81
2024-04-24T15:31:33.423Z,8.56
2024-04-24T15:34:00.591Z,9.06
2024-04-24T15:36:27.171Z,8.68
2024-04-24T15:38:53.772Z,9.14
2024-04-24T15:41:22.963Z,8.83
2024-04-24T15:43:49.587Z,9.02
2024-04-24T15:46:16.347Z,8.63
2024-04-24T15:48:42.950Z,8.38
2024-04-24T15:51:09.733Z,9.17
2024-04-24T15:53:36.331Z,9.09
2024-04-24T15:56:03.009Z,8.81
2024-04-24T15:58:32.123Z,9.04
2024-04-24T16:00:58.744Z,8.79
2024-04-24T16:03:25.402Z,9.03
2024-04-24T16:05:51.978Z,9.06
2024-04-24T16:08:18.592Z,8.57
2024-04-24T16:10:45.180Z,8.77
2024-04-24T16:13:11.715Z,9.13
2024-04-24T16:15:40.884Z,8.06
2024-04-24T16:18:07.741Z,8.66
2024-04-24T16:20:34.462Z,8.19
2024-04-24T16:23:01.142Z,8.33
2024-04-24T16:25:27.738Z,8.14
2024-04-24T16:27:54.350Z,8.23
2024-04-24T16:30:21.000Z,8.26
2024-04-24T16:32:50.190Z,7.72
2024-04-24T16:35:16.816Z,8.02
2024-04-24T16:37:45.855Z,8.12
2024-04-24T16:40:12.692Z,7.85
2024-04-24T16:42:39.314Z,8.02
2024-04-24T16:45:06.531Z,8.38
2024-04-24T16:47:33.260Z,8.59
2024-04-24T16:50:02.469Z,8.47
2024-04-24T16:52:29.062Z,7.77
2024-04-24T16:54:55.842Z,8.25
2024-04-24T16:57:22.530Z,8.51
2024-04-24T16:59:49.149Z,8.90
2024-04-24T17:02:15.693Z,7.68
2024-04-24T17:04:42.373Z,8.12
2024-04-24T17:07:11.598Z,7.72
2024-04-24T17:09:38.132Z,8.17
2024-04-24T17:12:05.515Z,8.21
2024-04-24T17:14:32.121Z,8.82
2024-04-24T17:16:58.872Z,7.77
2024-04-24T17:19:25.922Z,8.50
2024-04-24T17:21:52.666Z,8.28
2024-04-24T17:24:21.852Z,7.72
2024-04-24T17:26:48.819Z,8.14
2024-04-24T17:29:15.782Z,7.94
2024-04-24T17:31:42.439Z,8.18
2024-04-24T17:34:09.049Z,8.15
2024-04-24T17:36:35.625Z,8.04
2024-04-24T17:39:02.312Z,7.78
2024-04-24T17:41:31.614Z,7.97
2024-04-24T17:43:58.388Z,7.87
2024-04-24T17:46:24.958Z,8.07
2024-04-24T17:48:51.633Z,8.25
2024-04-24T17:51:18.246Z,8.06
2024-04-24T17:53:44.808Z,8.17
2024-04-24T17:56:11.425Z,7.84
2024-04-24T17:58:40.615Z,8.04
2024-04-24T18:01:07.174Z,8.39
2024-04-24T18:03:33.783Z,7.68
2024-04-24T18:06:00.395Z,7.90
2024-04-24T18:08:27.146Z,7.87
2024-04-24T18:10:53.906Z,8.14
2024-04-24T18:13:20.513Z,8.24
2024-04-24T18:15:49.669Z,8.14
2024-04-24T18:18:16.216Z,8.09
2024-04-24T18:20:43.030Z,7.73
2024-04-24T18:23:09.787Z,8.16
2024-04-24T18:25:36.483Z,8.02
2024-04-24T18:28:03.498Z,7.96
2024-04-24T18:30:30.299Z,7.67
2024-04-24T18:32:59.655Z,7.54
2024-04-24T18:35:26.419Z,7.23
2024-04-24T18:37:53.058Z,7.71
2024-04-24T18:40:19.813Z,7.33
2024-04-24T18:42:46.638Z,7.40
2024-04-24T18:45:13.266Z,7.64
2024-04-24T18:47:40.023Z,7.67
2024-04-24T18:50:09.785Z,7.99
2024-04-24T18:52:36.564Z,7.60
2024-04-24T18:55:03.213Z,7.57
2024-04-24T18:57:30.288Z,7.57
2024-04-24T18:59:56.971Z,7.74
2024-04-24T19:02:23.552Z,7.63
2024-04-24T19:04:50.243Z,7.87
2024-04-24T19:07:19.388Z,7.36
2024-04-24T19:09:45.983Z,7.36
2024-04-24T19:12:12.697Z,7.27
2024-04-24T19:14:39.385Z,7.74
2024-04-24T19:17:06.258Z,7.67
2024-04-24T19:19:32.978Z,7.86
2024-04-24T19:21:59.575Z,8.21
2024-04-24T19:24:28.705Z,7.82
2024-04-24T19:26:55.439Z,7.70
2024-04-24T19:29:22.170Z,7.80
2024-04-24T19:31:48.760Z,7.97
2024-04-24T19:34:15.538Z,8.06
2024-04-24T19:36:42.155Z,7.99
2024-04-24T19:39:08.724Z,7.91
2024-04-24T19:41:37.983Z,7.57
2024-04-24T19:44:07.701Z,7.73
2024-04-24T19:46:35.078Z,7.99
2024-04-24T19:49:01.885Z,7.86
2024-04-24T19:51:28.474Z,7.46
2024-04-24T19:53:55.079Z,7.99
2024-04-24T19:56:21.982Z,7.67
2024-04-24T19:58:51.341Z,8.00
2024-04-24T20:01:17.937Z,7.58
2024-04-24T20:03:44.690Z,7.97
2024-04-24T20:06:12.153Z,7.99
2024-04-24T20:08:39.408Z,8.17
2024-04-24T20:11:07.508Z,8.31
2024-04-24T20:13:34.593Z,7.85
2024-04-24T20:16:04.778Z,7.85
2024-04-24T20:18:31.852Z,8.05
2024-04-24T20:20:58.457Z,8.29
2024-04-24T20:23:25.128Z,7.59
2024-04-24T20:25:51.810Z,7.87
2024-04-24T20:28:18.385Z,7.41
2024-04-24T20:30:44.994Z,7.75
2024-04-24T20:33:14.487Z,7.94
2024-04-24T20:35:41.219Z,8.22
2024-04-24T20:38:07.874Z,7.78
2024-04-24T20:40:34.449Z,7.76
2024-04-24T20:43:00.990Z,8.13
2024-04-24T20:45:30.844Z,8.46
2024-04-24T20:47:57.667Z,8.00
2024-04-24T20:50:27.023Z,8.29
2024-04-24T20:52:53.715Z,8.28
2024-04-24T20:55:20.386Z,8.43
2024-04-24T20:57:47.174Z,8.40
2024-04-24T21:00:14.715Z,8.22
2024-04-24T21:02:41.387Z,8.06
2024-04-24T21:05:07.949Z,8.23
2024-04-24T21:07:37.104Z,8.34
2024-04-24T21:10:04.235Z,8.22
2024-04-24T21:12:31.624Z,8.01
2024-04-24T21:14:58.143Z,8.26
2024-04-24T21:17:24.931Z,8.48
2024-04-24T21:19:51.534Z,8.19
2024-04-24T21:22:18.080Z,8.65
2024-04-24T21:24:47.277Z,8.28
2024-04-24T21:27:15.779Z,8.28
2024-04-24T21:29:42.646Z,8.51
2024-04-24T21:32:09.415Z,8.65
2024-04-24T21:34:36.031Z,8.49
2024-04-24T21:37:02.562Z,8.77
2024-04-24T21:39:29.125Z,9.00
2024-04-24T21:41:58.231Z,8.70
2024-04-24T21:44:25.225Z,8.25
2024-04-24T21:46:51.810Z,8.55
2024-04-24T21:49:18.561Z,8.39
2024-04-24T21:51:45.086Z,8.19
2024-04-24T21:54:11.873Z,8.15
2024-04-24T21:56:38.575Z,8.23
2024-04-24T21:59:07.828Z,8.22
2024-04-24T22:01:34.512Z,8.50
2024-04-24T22:04:03.575Z,8.15
2024-04-24T22:06:30.179Z,8.50
2024-04-24T22:08:56.722Z,8.59
2024-04-24T22:11:23.288Z,8.15
2024-04-24T22:13:49.919Z,7.96
2024-04-24T22:16:19.112Z,7.79
2024-04-24T22:18:45.735Z,8.31
2024-04-24T22:21:12.406Z,8.12
2024-04-24T22:23:39.036Z,8.19
2024-04-24T22:26:05.702Z,8.06
2024-04-24T22:28:32.242Z,8.38
2024-04-24T22:30:58.929Z,8.20
2024-04-24T22:33:28.161Z,8.32
2024-04-24T22:35:54.755Z,7.83
2024-04-24T22:38:21.492Z,7.88
2024-04-24T22:40:48.112Z,7.42
2024-04-24T22:43:14.738Z,7.56
2024-04-24T22:45:41.339Z,7.63
2024-04-24T22:48:08.265Z,7.90
2024-04-24T22:50:37.441Z,8.01
2024-04-24T22:53:04.460Z,8.08
2024-04-24T22:55:31.083Z,7.68
2024-04-24T22:57:57.647Z,8.06
2024-04-24T23:00:24.385Z,7.71
2024-04-24T23:02:51.018Z,7.76
2024-04-24T23:05:17.645Z,8.09
2024-04-24T23:07:46.825Z,8.26
2024-04-24T23:10:13.498Z,7.92
2024-04-24T23:12:40.144Z,8.08
2024-04-24T23:15:07.480Z,8.10
2024-04-24T23:17:34.193Z,8.16
2024-04-24T23:20:00.754Z,7.46
2024-04-24T23:22:27.288Z,7.35
2024-04-24T23:24:56.385Z,7.16
2024-04-24T23:27:22.905Z,7.20
2024-04-24T23:29:49.561Z,7.31
2024-04-24T23:32:16.148Z,7.49
2024-04-24T23:34:42.706Z,7.16
2024-04-24T23:37:09.434Z,7.51
2024-04-24T23:39:35.957Z,7.98
2024-04-24T23:42:05.179Z,7.52
2024-04-24T23:44:31.806Z,8.11
2024-04-24T23:46:58.432Z,7.86
2024-04-24T23:49:25.195Z,7.53
2024-04-24T23:51:51.749Z,7.06
2024-04-24T23:54:18.371Z,7.58
2024-04-24T23:56:45.079Z,8.10
2024-04-24T23:59:14.454Z,7.94
